createdAt,value
2018-10-09T00:00:02.153Z,9.7
2018-10-09T00:05:01.766Z,9.7
2018-10-09T00:10:01.353Z,9.6
2018-10-09T00:15:02.673Z,9.6
2018-10-09T00:20:01.803Z,9.6
2018-10-09T00:25:02.558Z,9.6
2018-10-09T00:30:01.449Z,9.5
2018-10-09T00:35:01.755Z,9.5
2018-10-09T00:40:01.248Z,9.5
2018-10-09T00:45:01.900Z,9.5
2018-10-09T00:50:02.136Z,9.5
2018-10-09T00:55:01.936Z,9.4
2018-10-09T01:00:02.708Z,9.5
2018-10-09T01:05:01.680Z,9.5
2018-10-09T01:10:01.802Z,9.4
2018-10-09T01:15:01.857Z,9.4
2018-10-09T01:20:01.823Z,9.5
2018-10-09T01:25:02.173Z,9.5
2018-10-09T01:30:02.036Z,9.4
2018-10-09T01:35:01.150Z,9.4
2018-10-09T01:40:01.470Z,9.3
2018-10-09T01:45:02.087Z,9.3
2018-10-09T01:50:01.587Z,9.3
2018-10-09T01:55:01.478Z,9.3
2018-10-09T02:00:01.847Z,9.3
2018-10-09T02:05:02.288Z,9.3
2018-10-09T02:10:01.975Z,9.3
2018-10-09T02:15:01.936Z,9.3
2018-10-09T02:20:01.704Z,9.2
2018-10-09T02:25:01.524Z,9.2
2018-10-09T02:30:01.609Z,9.2
2018-10-09T02:35:02.005Z,9.2
2018-10-09T02:40:02.128Z,9.2
2018-10-09T02:45:01.227Z,9.2
2018-10-09T02:50:01.438Z,9.2
2018-10-09T02:55:01.154Z,9.2
2018-10-09T03:00:01.510Z,9.2
2018-10-09T03:05:02.195Z,9.1
2018-10-09T03:10:01.228Z,9.1
2018-10-09T03:15:02.051Z,9.1
2018-10-09T03:20:01.721Z,9
2018-10-09T03:25:01.243Z,9
2018-10-09T03:30:01.866Z,8.9
2018-10-09T03:35:01.591Z,8.9
2018-10-09T03:40:01.442Z,8.9
2018-10-09T03:45:02.063Z,8.8
2018-10-09T03:50:01.416Z,8.8
2018-10-09T03:55:02.015Z,8.9
2018-10-09T04:00:01.702Z,8.8
2018-10-09T04:05:01.906Z,8.9
2018-10-09T04:10:01.924Z,8.9
2018-10-09T04:15:01.722Z,8.9
2018-10-09T04:20:01.962Z,8.9
2018-10-09T04:25:01.266Z,8.8
2018-10-09T04:30:01.610Z,8.8
2018-10-09T04:35:01.641Z,8.7
2018-10-09T04:40:01.829Z,8.8
2018-10-09T04:45:01.516Z,8.8
2018-10-09T04:50:01.456Z,8.8
2018-10-09T04:55:01.849Z,8.8
2018-10-09T05:00:01.164Z,8.8
2018-10-09T05:05:01.943Z,8.8
2018-10-09T05:10:01.613Z,8.8
2018-10-09T05:15:01.712Z,8.8
2018-10-09T05:20:01.801Z,8.8
2018-10-09T05:25:02.102Z,8.7
2018-10-09T05:30:01.427Z,8.7
2018-10-09T05:35:02.121Z,8.7
2018-10-09T05:40:02.023Z,8.7
2018-10-09T05:45:01.823Z,8.7
2018-10-09T05:50:01.870Z,8.7
2018-10-09T05:55:01.968Z,8.7
2018-10-09T06:00:01.901Z,8.7
2018-10-09T06:05:01.757Z,8.7
2018-10-09T06:10:02.517Z,8.7
2018-10-09T06:15:01.381Z,8.7
2018-10-09T06:20:01.641Z,8.7
2018-10-09T06:25:02.040Z,8.8
2018-10-09T06:30:02.224Z,8.8
2018-10-09T06:35:01.188Z,8.8
2018-10-09T06:40:01.963Z,8.8
2018-10-09T06:45:01.301Z,8.9
2018-10-09T06:50:02.305Z,9
2018-10-09T06:55:01.788Z,9.1
2018-10-09T07:00:02.135Z,9.2
2018-10-09T07:05:01.870Z,9.3
2018-10-09T07:10:01.673Z,9.5
2018-10-09T07:15:01.643Z,9.7
2018-10-09T07:20:01.649Z,9.8
2018-10-09T07:25:02.185Z,10.2
2018-10-09T07:30:01.545Z,10.5
2018-10-09T07:35:01.570Z,10.6
2018-10-09T07:40:01.883Z,11.1
2018-10-09T07:45:02.277Z,11.4
2018-10-09T07:50:02.059Z,11.7
2018-10-09T07:55:01.778Z,12
2018-10-09T08:00:01.680Z,12.3
2018-10-09T08:05:01.708Z,12.6
2018-10-09T08:10:01.673Z,13
2018-10-09T08:15:01.362Z,13.2
2018-10-09T08:20:01.823Z,13.4
2018-10-09T08:25:01.703Z,13.9
2018-10-09T08:30:01.866Z,14.2
2018-10-09T08:35:01.703Z,14.4
2018-10-09T08:40:01.825Z,14.6
2018-10-09T08:45:01.988Z,14.7
2018-10-09T08:50:02.269Z,14.7
2018-10-09T08:55:01.959Z,14.7
2018-10-09T09:00:01.488Z,15
2018-10-09T09:05:01.676Z,15.1
2018-10-09T09:10:01.633Z,15
2018-10-09T09:15:01.319Z,14.9
2018-10-09T09:20:01.346Z,14.8
2018-10-09T09:25:02.224Z,14.7
2018-10-09T09:30:01.497Z,14.7
2018-10-09T09:35:01.975Z,14.7
2018-10-09T09:40:01.275Z,14.8
2018-10-09T09:45:01.499Z,14.8
2018-10-09T09:50:02.040Z,15
2018-10-09T09:55:01.329Z,15.1
2018-10-09T10:00:02.286Z,15.2
2018-10-09T10:05:01.229Z,15.3
2018-10-09T10:10:01.413Z,15.3
2018-10-09T10:15:01.165Z,15.6
2018-10-09T10:20:01.628Z,15.7
2018-10-09T10:25:02.149Z,15.9
2018-10-09T10:30:01.455Z,16
2018-10-09T10:35:02.383Z,16
2018-10-09T10:40:01.549Z,16
2018-10-09T10:45:01.215Z,16.1
2018-10-09T10:50:02.382Z,16.2
2018-10-09T10:55:02.203Z,16.4
2018-10-09T11:00:01.828Z,16.5
2018-10-09T11:05:01.881Z,17
2018-10-09T11:10:02.104Z,17
2018-10-09T11:15:01.290Z,16.9
2018-10-09T11:20:01.312Z,17.2
2018-10-09T11:25:01.813Z,17.7
2018-10-09T11:30:01.627Z,18
2018-10-09T11:35:01.210Z,18.6
2018-10-09T11:40:01.529Z,18.8
2018-10-09T11:45:01.800Z,18.9
2018-10-09T11:50:01.555Z,19
2018-10-09T11:55:01.555Z,19.5
2018-10-09T12:00:02.371Z,19.6
2018-10-09T12:05:02.143Z,19.9
2018-10-09T12:10:01.987Z,20.2
2018-10-09T12:15:01.576Z,20.3
2018-10-09T12:20:01.525Z,20.3
2018-10-09T12:25:01.998Z,20.5
2018-10-09T12:30:01.362Z,21
2018-10-09T12:35:02.061Z,21.1
2018-10-09T12:40:01.744Z,21.2
2018-10-09T12:45:01.269Z,21
2018-10-09T12:50:02.132Z,20.6
2018-10-09T12:55:01.261Z,20.7
2018-10-09T13:00:01.951Z,20.7
2018-10-09T13:05:02.039Z,20.5
2018-10-09T13:10:01.846Z,20.2
2018-10-09T13:15:01.529Z,20.1
2018-10-09T13:20:01.901Z,20.1
2018-10-09T13:25:01.550Z,20
2018-10-09T13:30:01.791Z,19.9
2018-10-09T13:35:01.360Z,19.9
2018-10-09T13:40:01.691Z,19.9
2018-10-09T13:45:01.208Z,20.2
2018-10-09T13:50:01.248Z,20.6
2018-10-09T13:55:02.435Z,20.8
2018-10-09T14:00:01.281Z,20.2
2018-10-09T14:05:01.384Z,19.9
2018-10-09T14:10:01.296Z,19.8
2018-10-09T14:15:01.656Z,19.7
2018-10-09T14:20:01.814Z,19.6
2018-10-09T14:25:01.570Z,19.6
2018-10-09T14:30:01.848Z,19.8
2018-10-09T14:35:01.362Z,20
2018-10-09T14:40:01.600Z,19.9
2018-10-09T14:45:01.799Z,20
2018-10-09T14:50:01.932Z,19.8
2018-10-09T14:55:01.291Z,19.8
2018-10-09T15:00:01.880Z,19.7
2018-10-09T15:05:01.625Z,19.6
2018-10-09T15:10:01.741Z,19.4
2018-10-09T15:15:01.698Z,19.3
2018-10-09T15:20:02.170Z,19.2
2018-10-09T15:25:01.155Z,19.2
2018-10-09T15:30:01.802Z,19.1
2018-10-09T15:35:01.278Z,19
2018-10-09T15:40:01.959Z,18.9
2018-10-09T15:45:01.857Z,18.8
2018-10-09T15:50:01.818Z,18.7
2018-10-09T15:55:02.026Z,18.6
2018-10-09T16:00:01.562Z,18.5
2018-10-09T16:05:01.235Z,18.4
2018-10-09T16:10:01.815Z,18.2
2018-10-09T16:15:02.389Z,18
2018-10-09T16:20:01.263Z,17.8
2018-10-09T16:25:01.847Z,17.6
2018-10-09T16:30:01.426Z,17.2
2018-10-09T16:35:02.342Z,17
2018-10-09T16:40:01.719Z,16.6
2018-10-09T16:45:01.749Z,16.5
2018-10-09T16:50:01.920Z,16.3
2018-10-09T16:55:01.426Z,16.1
2018-10-09T17:00:02.053Z,15.9
2018-10-09T17:05:01.367Z,15.8
2018-10-09T17:10:02.386Z,15.7
2018-10-09T17:15:01.680Z,15.5
2018-10-09T17:20:01.459Z,15.3
2018-10-09T17:25:01.764Z,15
2018-10-09T17:30:02.259Z,14.8
2018-10-09T17:35:02.105Z,14.6
2018-10-09T17:40:01.296Z,14.4
2018-10-09T17:45:02.016Z,14.3
2018-10-09T17:50:02.096Z,14.1
2018-10-09T17:55:02.172Z,14
2018-10-09T18:00:01.983Z,13.9
2018-10-09T18:05:01.434Z,13.6
2018-10-09T18:10:01.974Z,13.4
2018-10-09T18:15:01.556Z,13.3
2018-10-09T18:20:01.900Z,13.2
2018-10-09T18:25:02.088Z,13.1
2018-10-09T18:30:01.476Z,13.2
2018-10-09T18:35:01.799Z,13.1
2018-10-09T18:40:01.793Z,13
2018-10-09T18:45:02.128Z,13
2018-10-09T18:50:02.135Z,12.9
2018-10-09T18:55:01.526Z,12.9
2018-10-09T19:00:01.922Z,12.8
2018-10-09T19:05:02.234Z,12.6
2018-10-09T19:10:02.111Z,12.5
2018-10-09T19:15:02.028Z,12.4
2018-10-09T19:20:01.761Z,12.3
2018-10-09T19:25:01.632Z,12.2
2018-10-09T19:30:01.895Z,12.1
2018-10-09T19:35:01.414Z,12
2018-10-09T19:40:01.958Z,11.9
2018-10-09T19:45:01.712Z,11.8
2018-10-09T19:50:01.936Z,11.7
2018-10-09T19:55:02.305Z,11.6
2018-10-09T20:00:01.686Z,11.5
2018-10-09T20:05:01.438Z,11.4
2018-10-09T20:10:01.271Z,11.3
2018-10-09T20:15:02.155Z,11.2
2018-10-09T20:20:01.934Z,11.2
2018-10-09T20:25:01.764Z,11.1
2018-10-09T20:30:01.374Z,11
2018-10-09T20:35:01.795Z,10.9
2018-10-09T20:40:01.541Z,10.8
2018-10-09T20:45:01.613Z,10.8
2018-10-09T20:50:02.106Z,10.7
2018-10-09T20:55:01.621Z,10.7
2018-10-09T21:00:01.996Z,10.6
2018-10-09T21:05:01.825Z,10.5
2018-10-09T21:10:02.054Z,10.4
2018-10-09T21:15:01.347Z,10.3
2018-10-09T21:20:01.410Z,10.3
2018-10-09T21:25:02.131Z,10.2
2018-10-09T21:30:02.005Z,10.2
2018-10-09T21:35:02.001Z,10.2
2018-10-09T21:40:01.331Z,10.1
2018-10-09T21:45:01.994Z,10
2018-10-09T21:50:02.544Z,10
2018-10-09T21:55:01.632Z,9.9
2018-10-09T22:00:01.805Z,9.8
2018-10-09T22:05:01.728Z,9.8
2018-10-09T22:10:01.895Z,9.7
2018-10-09T22:15:01.516Z,9.6
2018-10-09T22:20:02.035Z,9.6
2018-10-09T22:25:01.286Z,9.5
2018-10-09T22:30:02.093Z,9.5
2018-10-09T22:35:02.260Z,9.4
2018-10-09T22:40:01.603Z,9.4
2018-10-09T22:45:01.903Z,9.4
2018-10-09T22:50:01.630Z,9.3
2018-10-09T22:55:02.290Z,9.2
2018-10-09T23:00:01.591Z,9.2
2018-10-09T23:05:01.544Z,9.2
2018-10-09T23:10:01.563Z,9.2
2018-10-09T23:15:01.406Z,9.1
2018-10-09T23:20:01.931Z,9.1
2018-10-09T23:25:01.353Z,9.1
2018-10-09T23:30:01.423Z,9
2018-10-09T23:35:01.808Z,9
2018-10-09T23:40:01.600Z,8.9
2018-10-09T23:45:01.344Z,8.9
2018-10-09T23:50:01.492Z,8.8
2018-10-09T23:55:01.695Z,8.7
